Latest Weather Observations for Cleve Airport

IDS60801

Issued at 11:02 am CDT Thursday 18 December 2014 (issued every 30 minutes, with the page automatically refreshed every 10 minutes)

About weather observations | Map of weather stations | Latest weather observations for SA | Other Formats
Station Details ID: 018116 Name: CLEVE AERODROME Lat: -33.71 Lon: 136.50 Height: 175.0 m
Data from the previous 72 hours. | See also: Recent months at Cleve Airport
Date/Time
CDT
Temp
°C
App
Temp
°C
Dew
Point
Rel
Hum
%
Delta-T
°C
Wind Press
QNH
hPa
Press
MSL
hPa
Rain
since 9 am
mm
Dir
 
Spd
km/h
Gust
km/h
Spd
kts
Gust
kts
18/11:00am 22.1 17.3 8.9 43 7.1 WSW 24 43 13 23 1013.6 - 0.0
18/10:30am 20.7 15.1 8.7 46 6.4 WSW 28 41 15 22 1013.6 - 0.0
18/10:00am 20.1 15.7 8.8 48 6.0 W 22 35 12 19 1013.5 - 0.0
18/09:30am 18.7 14.2 8.7 52 5.2 W 22 30 12 16 1013.3 - 0.0
18/09:00am 17.8 13.1 9.4 58 4.4 W 24 32 13 17 1013.0 1012.4 0.0
18/08:30am 17.1 13.0 10.0 63 3.8 W 22 32 12 17 1012.9 - 0.0
18/08:00am 16.5 13.4 10.4 67 3.3 W 17 24 9 13 1012.2 - 0.0
18/07:30am 15.1 12.2 9.7 70 2.8 W 15 19 8 10 1011.9 - 0.0
18/07:00am 13.4 11.0 8.7 73 2.4 WNW 11 17 6 9 1011.7 - 0.0
18/06:30am 12.1 9.1 7.8 75 2.1 WNW 13 17 7 9 1011.3 - 0.0
18/06:00am 11.8 8.8 7.5 75 2.1 WNW 13 17 7 9 1010.9 1010.4 0.0
18/05:30am 11.9 8.8 7.4 74 2.2 WNW 13 15 7 8 1010.6 - 0.0
18/05:00am 11.7 9.0 7.4 75 2.1 WNW 11 15 6 8 1010.2 - 0.0
18/04:30am 12.1 9.5 7.6 74 2.2 WNW 11 15 6 8 1010.0 - 0.0
18/04:00am 12.3 9.0 8.2 76 2.0 W 15 19 8 10 1010.0 - 0.0
18/03:30am 10.9 7.6 8.0 82 1.4 W 15 17 8 9 1009.7 - 0.0
18/03:00am 11.7 9.6 8.2 79 1.7 NNW 9 11 5 6 1009.3 1008.7 0.0
18/02:30am 12.0 10.0 8.5 79 1.7 N 9 11 5 6 1009.5 - 0.0
18/02:00am 12.2 10.1 8.1 76 2.0 N 9 11 5 6 1009.5 - 0.0
18/01:30am 13.0 11.5 8.5 74 2.3 N 6 7 3 4 1009.7 - 0.0
18/01:00am 12.9 11.3 8.6 75 2.2 NNE 7 7 4 4 1009.5 - 0.0
18/12:30am 12.5 10.3 7.8 73 2.3 NE 9 9 5 5 1009.4 - 0.0
18/12:00am 13.0 11.3 8.5 74 2.3 ENE 7 9 4 5 1009.7 1009.1 0.0
 
Date/Time
CDT
Temp
°C
App
Temp
°C
Dew
Point
Rel
Hum
%
Delta-T
°C
Wind Press
QNH
hPa
Press
MSL
hPa
Rain
since 9 am
mm
Dir
 
Spd
km/h
Gust
km/h
Spd
kts
Gust
kts
17/11:30pm 13.1 11.0 8.2 72 2.5 ENE 9 11 5 6 1009.6 - 0.0
17/11:00pm 13.0 11.0 7.2 68 2.8 ENE 7 11 4 6 1010.0 - 0.0
17/10:30pm 14.4 12.9 8.6 68 3.0 SSE 6 7 3 4 1010.2 - 0.0
17/10:00pm 14.7 13.0 8.4 66 3.2 S 7 9 4 5 1010.3 - 0.0
17/09:30pm 15.0 12.5 8.0 63 3.5 SSE 11 13 6 7 1010.1 - 0.0
17/09:00pm 15.9 12.6 8.2 60 3.9 SSE 15 19 8 10 1009.8 1009.3 0.0
17/08:30pm 16.6 12.7 8.6 59 4.1 SSE 19 24 10 13 1009.6 - 0.0
17/08:00pm 17.7 12.8 8.3 54 4.9 SSE 24 28 13 15 1009.3 - 0.0
17/07:30pm 18.5 13.6 8.5 52 5.2 SSE 24 32 13 17 1008.7 - 0.0
17/07:00pm 19.7 14.9 8.7 49 5.8 SE 24 33 13 18 1008.1 - 0.0
17/06:30pm 20.0 14.8 8.7 48 6.0 SE 26 32 14 17 1007.4 - 0.0
17/06:00pm 21.2 15.5 8.5 44 6.7 SE 28 39 15 21 1007.0 1006.4 0.0
17/05:30pm 22.1 16.7 8.2 41 7.4 ESE 26 39 14 21 1006.9 - 0.0
17/05:00pm 23.1 17.3 8.0 38 8.0 ESE 28 35 15 19 1007.0 - 0.0
17/04:30pm 22.8 16.7 8.1 39 7.8 ESE 30 37 16 20 1007.3 - 0.0
17/04:00pm 23.1 17.9 7.2 36 8.3 SE 24 35 13 19 1007.6 - 0.0
17/03:30pm 24.8 21.5 6.5 31 9.6 SE 13 24 7 13 1007.8 - 0.0
17/03:00pm 24.1 20.7 5.9 31 9.4 SSE 13 24 7 13 1008.2 1007.6 0.0
17/02:30pm 25.3 21.0 0.7 20 11.6 N 13 30 7 16 1008.6 - 0.0
17/02:00pm 23.8 19.7 2.0 24 10.4 W 13 32 7 17 1009.0 - 0.0
17/01:30pm 23.5 19.9 2.9 26 10.0 NNW 11 19 6 10 1009.1 - 0.0
17/01:00pm 22.6 19.0 3.2 28 9.4 W 11 20 6 11 1009.7 - 0.0
17/12:30pm 21.6 18.4 3.3 30 8.8 NE 9 17 5 9 1010.0 - 0.0
17/12:00pm 20.3 17.8 3.5 33 8.1 NE 6 15 3 8 1010.5 1010.0 0.0
17/11:30am 20.6 16.4 3.8 33 8.1 W 15 19 8 10 1010.8 - 0.0
17/11:00am 19.1 16.4 3.7 36 7.3 ESE 7 11 4 6 1011.2 - 0.0
17/10:30am 18.3 15.8 4.8 41 6.5 N 7 15 4 8 1011.3 - 0.0
17/10:00am 17.5 16.0 5.1 44 6.0 NNW 2 7 1 4 1011.6 - 0.0
17/09:30am 16.7 14.6 5.6 48 5.4 S 6 11 3 6 1011.8 - 0.0
17/09:00am 16.0 13.2 5.0 48 5.3 S 9 17 5 9 1012.0 1011.5 0.0
17/08:30am 15.6 12.8 5.2 50 5.0 SW 9 13 5 7 1012.0 - 0.0
17/08:00am 14.2 11.2 5.8 57 4.0 W 11 15 6 8 1012.0 - 0.0
17/07:30am 12.5 9.5 5.9 64 3.1 W 11 15 6 8 1012.0 - 0.0
17/07:00am 11.5 8.5 5.8 68 2.7 WNW 11 13 6 7 1011.7 - 0.0
17/06:30am 10.6 7.5 5.6 71 2.3 NW 11 15 6 8 1011.5 - 0.0
17/06:00am 9.7 6.9 5.1 73 2.1 NW 9 11 5 6 1010.9 1010.4 0.0
17/05:30am 10.5 7.8 5.5 71 2.3 W 9 13 5 7 1010.6 - 0.0
17/05:00am 10.8 7.8 5.8 71 2.3 WNW 11 13 6 7 1010.6 - 0.0
17/04:30am 11.1 7.7 5.8 70 2.5 WNW 13 17 7 9 1010.5 - 0.0
17/04:00am 10.9 7.5 5.7 70 2.4 W 13 17 7 9 1010.2 - 0.0
17/03:30am 10.8 7.3 5.3 69 2.5 W 13 17 7 9 1009.9 - 0.0
17/03:00am 10.9 7.3 5.2 68 2.6 W 13 17 7 9 1009.9 1009.4 0.0
17/02:30am 11.1 7.6 5.4 68 2.6 W 13 17 7 9 1010.1 - 0.0
17/02:00am 11.0 7.4 5.1 67 2.7 W 13 15 7 8 1010.2 - 0.0
17/01:30am 11.2 7.2 4.7 64 3.0 WSW 15 17 8 9 1010.3 - 0.0
17/01:00am 11.5 7.8 4.5 62 3.2 WSW 13 15 7 8 1010.5 - 0.0
17/12:30am 11.9 8.2 4.6 61 3.3 WSW 13 17 7 9 1010.7 - 0.0
17/12:00am 12.3 8.7 4.8 60 3.5 WSW 13 15 7 8 1010.7 1010.2 0.0
 
Date/Time
CDT
Temp
°C
App
Temp
°C
Dew
Point
Rel
Hum
%
Delta-T
°C
Wind Press
QNH
hPa
Press
MSL
hPa
Rain
since 9 am
mm
Dir
 
Spd
km/h
Gust
km/h
Spd
kts
Gust
kts
16/11:30pm 11.9 8.5 4.2 59 3.5 WSW 11 13 6 7 1010.9 - 0.0
16/11:00pm 12.7 9.3 4.2 56 3.9 SW 11 15 6 8 1011.1 - 0.0
16/10:30pm 13.6 10.0 5.0 56 4.0 SSW 13 19 7 10 1010.9 - 0.0
16/10:00pm 14.5 10.1 4.8 52 4.6 SSW 17 19 9 10 1010.8 - 0.0
16/09:30pm 14.8 10.4 2.7 44 5.5 SW 15 19 8 10 1010.6 - 0.0
16/09:00pm 15.8 10.6 2.6 41 6.0 SW 19 24 10 13 1010.5 1010.0 0.0
16/08:30pm 16.7 10.1 2.3 38 6.5 SW 26 35 14 19 1009.9 - 0.0
16/08:00pm 18.0 10.9 3.5 38 6.8 SSW 30 39 16 21 1009.5 - 0.0
16/07:30pm 19.1 12.0 3.7 36 7.3 SW 30 43 16 23 1009.0 - 0.0
16/07:00pm 20.4 12.7 3.6 33 8.1 SW 33 43 18 23 1008.4 - 0.0
16/06:34pm 21.0 14.1 4.6 34 8.1 SW 30 48 16 26 1007.9 - 0.0
16/06:30pm 20.7 13.4 4.3 34 8.0 SW 32 41 17 22 1007.9 - 0.0
16/06:00pm 21.5 13.8 3.2 30 8.8 WSW 33 46 18 25 1007.6 1007.0 0.0
16/05:30pm 21.9 13.5 3.6 30 8.9 SW 37 50 20 27 1007.3 - 0.0
16/05:00pm 22.4 14.4 4.0 30 9.0 SW 35 50 19 27 1007.3 - 0.0
16/04:45pm 22.7 15.2 4.2 30 9.1 WSW 33 52 18 28 1007.2 - 0.0
16/04:30pm 23.1 14.8 4.1 29 9.4 WSW 37 50 20 27 1007.2 - 0.0
16/04:00pm 22.7 14.4 6.0 34 8.5 WSW 39 61 21 33 1007.1 - 0.0
16/03:30pm 23.5 16.0 6.3 33 8.9 SW 35 57 19 31 1006.9 - 0.0
16/03:01pm 24.2 16.7 6.5 32 9.2 SW 35 56 19 30 1006.5 - 0.0
16/03:00pm 23.6 16.2 6.8 34 8.8 SW 35 52 19 28 1006.6 1006.0 0.0
16/02:35pm 24.3 17.2 5.6 30 9.6 SW 32 52 17 28 1006.6 - 0.0
16/02:30pm 24.5 17.0 6.3 31 9.4 W 35 56 19 30 1006.7 - 0.0
16/02:09pm 24.8 17.1 7.0 32 9.4 SW 37 56 20 30 1006.3 - 0.0
16/02:00pm 24.0 16.1 6.3 32 9.2 WSW 37 48 20 26 1006.3 - 0.0
16/01:30pm 24.4 17.1 7.1 33 9.1 WSW 35 57 19 31 1006.1 - 0.0
16/01:17pm 24.8 17.3 7.9 34 9.0 WSW 37 57 20 31 1005.9 - 0.0
16/01:00pm 23.8 16.5 8.6 38 8.2 WSW 37 48 20 26 1005.7 - 0.0
16/12:33pm 25.4 18.7 9.7 37 8.7 WSW 35 54 19 29 1005.5 - 0.0
16/12:30pm 24.1 17.1 10.0 41 7.8 WSW 37 54 20 29 1005.4 - 0.0
16/12:03pm 24.5 17.5 10.0 40 8.0 WSW 37 57 20 31 1005.1 - 0.0
16/12:00pm 23.8 17.0 10.8 44 7.3 WSW 37 50 20 27 1005.1 1004.6 0.0
16/11:30am 23.2 16.0 10.6 45 7.0 W 39 57 21 31 1004.9 - 0.0
16/11:06am 22.8 16.1 10.9 47 6.6 WSW 37 56 20 30 1004.6 - 0.0
16/11:00am 23.2 15.9 10.3 44 7.1 W 39 56 21 30 1004.6 - 0.0
16/10:30am 22.3 16.2 10.5 47 6.5 W 33 44 18 24 1004.4 - 0.0
16/10:00am 21.3 14.8 10.2 49 6.1 W 35 46 19 25 1004.7 - 0.0
16/09:30am 20.1 15.2 9.9 52 5.5 W 26 37 14 20 1004.5 - 0.0
16/09:00am 18.6 13.7 11.2 62 4.1 W 28 35 15 19 1004.6 1004.0 0.0
16/08:30am 16.6 11.8 11.5 72 2.8 W 28 35 15 19 1004.2 - 0.0
16/08:00am 15.5 10.8 10.5 72 2.7 W 26 35 14 19 1003.7 - 0.0
16/07:30am 14.3 10.3 10.5 78 2.0 W 22 30 12 16 1003.4 - 0.0
16/07:00am 13.1 8.1 9.7 80 1.8 WNW 26 32 14 17 1003.5 - 0.0
16/06:30am 12.1 7.7 8.9 81 1.6 W 22 28 12 15 1002.6 - 0.0
16/06:00am 14.4 9.2 7.2 62 3.6 WSW 24 32 13 17 1001.2 1000.6 0.0
16/05:59am 15.1 9.9 7.2 59 3.9 WSW 24 32 13 17 1001.2 - 0.0
16/05:30am 20.1 14.7 1.0 28 8.7 WNW 19 32 10 17 1000.7 - 0.0
16/05:00am 19.7 12.8 2.6 32 8.0 NNW 28 35 15 19 1000.1 - 0.0
16/04:30am 17.7 11.8 7.4 51 5.2 N 28 35 15 19 1000.1 - 0.0
16/04:00am 17.3 11.3 8.7 57 4.5 N 30 39 16 21 999.9 - 0.0
16/03:30am 15.7 12.2 10.2 70 2.9 N 19 30 10 16 1001.1 - 0.0
16/03:00am 14.0 11.7 10.6 80 1.8 N 13 17 7 9 1002.0 1001.4 0.0
16/02:30am 13.4 11.8 11.6 89 1.0 N 11 13 6 7 1002.4 - 0.0
16/02:00am 12.8 11.1 11.2 90 0.8 N 11 13 6 7 1003.2 - 0.0
16/01:30am 13.2 12.0 11.6 90 0.9 N 9 11 5 6 1003.6 - 0.0
16/01:00am 13.0 11.7 11.1 88 1.0 N 9 9 5 5 1003.6 - 0.0
16/12:30am 14.2 14.5 12.2 88 1.1 ENE 2 6 1 3 1003.9 - 0.0
16/12:00am 13.2 12.1 10.6 84 1.4 NE 7 9 4 5 1004.0 1003.4 0.0
 
Date/Time
CDT
Temp
°C
App
Temp
°C
Dew
Point
Rel
Hum
%
Delta-T
°C
Wind Press
QNH
hPa
Press
MSL
hPa
Rain
since 9 am
mm
Dir
 
Spd
km/h
Gust
km/h
Spd
kts
Gust
kts
15/11:30pm 13.8 12.5 11.3 85 1.3 ENE 9 9 5 5 1004.1 - 0.0
15/11:00pm 14.0 13.1 11.2 83 1.5 E 7 9 4 5 1004.4 - 0.0
15/10:30pm 14.5 13.7 10.9 79 1.9 E 6 7 3 4 1004.7 - 0.0
15/10:00pm 15.2 14.3 10.8 75 2.4 SSE 6 7 3 4 1005.0 - 0.0
15/09:30pm 16.1 14.8 11.3 73 2.6 SSE 9 11 5 6 1005.1 - 0.0
15/09:00pm 17.2 15.3 11.9 71 2.9 SE 13 15 7 8 1005.2 1004.7 0.0
15/08:30pm 18.1 16.2 11.7 66 3.5 SE 13 17 7 9 1005.3 - 0.0
15/08:00pm 19.4 16.6 11.2 59 4.5 SE 17 22 9 12 1005.2 - 0.0
15/07:30pm 20.8 17.2 10.6 52 5.6 SSE 20 24 11 13 1005.0 - 0.0
15/07:00pm 22.0 17.7 9.2 44 6.9 S 22 28 12 15 1004.8 - 0.0
15/06:30pm 22.7 17.8 9.8 44 7.1 SSE 26 33 14 18 1004.6 - 0.0
15/06:00pm 24.2 20.6 9.8 40 8.0 ESE 19 28 10 15 1004.4 1003.8 0.0
15/05:30pm 24.0 20.9 10.3 42 7.6 SE 17 24 9 13 1004.6 - 0.0
15/05:00pm 23.8 20.6 10.1 42 7.6 SE 17 24 9 13 1004.8 - 0.0
15/04:30pm 23.9 20.7 9.9 41 7.7 SSE 17 26 9 14 1005.0 - 0.0
15/04:00pm 23.9 21.1 9.9 41 7.7 S 15 24 8 13 1005.3 - 0.0
15/03:30pm 23.1 20.6 9.8 43 7.3 S 13 26 7 14 1005.5 - 0.0
15/03:00pm 22.4 19.2 9.9 45 6.9 SE 17 28 9 15 1005.9 1005.4 0.0
15/02:30pm 23.2 19.6 10.6 45 7.0 S 20 30 11 16 1006.2 - 0.0
15/02:00pm 23.0 18.7 10.8 46 6.8 S 24 35 13 19 1006.7 - 0.0
15/01:30pm 22.5 18.8 10.0 45 6.9 S 20 28 11 15 1007.0 - 0.0
15/01:00pm 21.4 17.4 10.3 49 6.1 S 22 33 12 18 1007.3 - 0.0
15/12:30pm 21.4 17.4 10.3 49 6.1 SSE 22 33 12 18 1007.4 - 0.0
15/12:00pm 20.9 16.5 10.4 51 5.8 SSE 24 37 13 20 1007.9 1007.3 0.0
15/11:30am 20.0 16.0 10.4 54 5.2 SSE 22 35 12 19 1008.0 - 0.0

Other Formats:

Comma delimited format used in spreadsheet applications
http://www.bom.gov.au/fwo/IDS60801/IDS60801.94662.axf

JavaScript Object Notation format (JSON) in row-major order
http://www.bom.gov.au/fwo/IDS60801/IDS60801.94662.json